sensor_id;sensor_type;location;lat;lon;timestamp;P1;durP1;ratioP1;P2;durP2;ratioP2
22632;SDS011;11483;55.828;37.488;2022-09-09T00:11:11;2.95;;;1.80;;
22632;SDS011;11483;55.828;37.488;2022-09-09T00:13:46;2.95;;;1.70;;
22632;SDS011;11483;55.828;37.488;2022-09-09T00:16:29;6.05;;;2.47;;
22632;SDS011;11483;55.828;37.488;2022-09-09T00:19:24;5.43;;;2.10;;
22632;SDS011;11483;55.828;37.488;2022-09-09T00:24:42;3.47;;;2.13;;
22632;SDS011;11483;55.828;37.488;2022-09-09T00:27:31;5.55;;;2.20;;
22632;SDS011;11483;55.828;37.488;2022-09-09T00:35:16;4.70;;;2.00;;
22632;SDS011;11483;55.828;37.488;2022-09-09T00:37:47;6.03;;;2.25;;
22632;SDS011;11483;55.828;37.488;2022-09-09T00:40:27;3.30;;;2.03;;
22632;SDS011;11483;55.828;37.488;2022-09-09T00:43:03;5.68;;;2.17;;
22632;SDS011;11483;55.828;37.488;2022-09-09T00:45:52;8.15;;;2.50;;
22632;SDS011;11483;55.828;37.488;2022-09-09T00:51:13;3.88;;;2.20;;
22632;SDS011;11483;55.828;37.488;2022-09-09T00:53:58;4.20;;;2.10;;
22632;SDS011;11483;55.828;37.488;2022-09-09T00:56:44;5.60;;;2.08;;
22632;SDS011;11483;55.828;37.488;2022-09-09T01:05:28;6.63;;;2.35;;
22632;SDS011;11483;55.828;37.488;2022-09-09T01:08:01;4.10;;;2.28;;
22632;SDS011;11483;55.828;37.488;2022-09-09T01:13:21;6.20;;;2.30;;
22632;SDS011;11483;55.828;37.488;2022-09-09T01:15:51;5.00;;;2.30;;
22632;SDS011;11483;55.828;37.488;2022-09-09T01:18:21;5.43;;;2.20;;
22632;SDS011;11483;55.828;37.488;2022-09-09T01:21:13;3.83;;;2.05;;
22632;SDS011;11483;55.828;37.488;2022-09-09T01:26:35;3.17;;;2.13;;
22632;SDS011;11483;55.828;37.488;2022-09-09T01:29:07;6.20;;;2.00;;
22632;SDS011;11483;55.828;37.488;2022-09-09T01:31:37;2.70;;;1.85;;
22632;SDS011;11483;55.828;37.488;2022-09-09T01:34:13;3.95;;;2.47;;
22632;SDS011;11483;55.828;37.488;2022-09-09T01:39:12;3.08;;;1.90;;
22632;SDS011;11483;55.828;37.488;2022-09-09T01:41:38;5.03;;;2.28;;
22632;SDS011;11483;55.828;37.488;2022-09-09T01:44:04;3.58;;;2.03;;
22632;SDS011;11483;55.828;37.488;2022-09-09T01:46:32;2.72;;;1.70;;
22632;SDS011;11483;55.828;37.488;2022-09-09T01:48:58;5.47;;;1.98;;
22632;SDS011;11483;55.828;37.488;2022-09-09T01:51:40;3.08;;;2.00;;
22632;SDS011;11483;55.828;37.488;2022-09-09T01:54:09;3.35;;;2.00;;
22632;SDS011;11483;55.828;37.488;2022-09-09T02:02:09;4.68;;;2.05;;
22632;SDS011;11483;55.828;37.488;2022-09-09T02:04:40;2.88;;;1.95;;
22632;SDS011;11483;55.828;37.488;2022-09-09T02:09:58;3.38;;;1.80;;
22632;SDS011;11483;55.828;37.488;2022-09-09T02:12:52;3.50;;;2.28;;
22632;SDS011;11483;55.828;37.488;2022-09-09T02:17:55;6.07;;;2.08;;
22632;SDS011;11483;55.828;37.488;2022-09-09T02:20:23;8.02;;;2.13;;
22632;SDS011;11483;55.828;37.488;2022-09-09T02:22:52;2.47;;;2.03;;
22632;SDS011;11483;55.828;37.488;2022-09-09T02:25:20;4.50;;;2.03;;
22632;SDS011;11483;55.828;37.488;2022-09-09T02:27:48;4.07;;;2.22;;
22632;SDS011;11483;55.828;37.488;2022-09-09T02:30:16;3.17;;;1.85;;
22632;SDS011;11483;55.828;37.488;2022-09-09T02:32:44;3.72;;;1.88;;
22632;SDS011;11483;55.828;37.488;2022-09-09T02:35:14;9.65;;;1.90;;
22632;SDS011;11483;55.828;37.488;2022-09-09T02:37:45;2.83;;;1.70;;
22632;SDS011;11483;55.828;37.488;2022-09-09T02:40:12;2.65;;;2.15;;
22632;SDS011;11483;55.828;37.488;2022-09-09T02:42:41;5.25;;;2.20;;
22632;SDS011;11483;55.828;37.488;2022-09-09T02:45:08;3.75;;;2.25;;
22632;SDS011;11483;55.828;37.488;2022-09-09T02:47:41;3.95;;;2.00;;
22632;SDS011;11483;55.828;37.488;2022-09-09T02:53:19;10.00;;;2.00;;
22632;SDS011;11483;55.828;37.488;2022-09-09T02:56:00;2.97;;;1.83;;
22632;SDS011;11483;55.828;37.488;2022-09-09T02:58:30;7.47;;;2.08;;
22632;SDS011;11483;55.828;37.488;2022-09-09T03:00:56;6.05;;;1.75;;
22632;SDS011;11483;55.828;37.488;2022-09-09T03:03:23;2.75;;;1.75;;
22632;SDS011;11483;55.828;37.488;2022-09-09T03:05:49;4.68;;;2.03;;
22632;SDS011;11483;55.828;37.488;2022-09-09T03:08:15;3.03;;;1.73;;
22632;SDS011;11483;55.828;37.488;2022-09-09T03:10:42;3.22;;;1.80;;
22632;SDS011;11483;55.828;37.488;2022-09-09T03:13:07;3.33;;;1.95;;
22632;SDS011;11483;55.828;37.488;2022-09-09T03:15:34;3.30;;;1.65;;
22632;SDS011;11483;55.828;37.488;2022-09-09T03:18:00;3.67;;;1.50;;
22632;SDS011;11483;55.828;37.488;2022-09-09T03:20:28;8.65;;;1.83;;
22632;SDS011;11483;55.828;37.488;2022-09-09T03:22:55;2.83;;;2.00;;
22632;SDS011;11483;55.828;37.488;2022-09-09T03:25:21;3.05;;;1.90;;
22632;SDS011;11483;55.828;37.488;2022-09-09T03:27:49;7.80;;;1.70;;
22632;SDS011;11483;55.828;37.488;2022-09-09T03:30:20;2.88;;;1.90;;
22632;SDS011;11483;55.828;37.488;2022-09-09T03:32:47;3.15;;;2.00;;
22632;SDS011;11483;55.828;37.488;2022-09-09T03:35:13;2.90;;;1.52;;
22632;SDS011;11483;55.828;37.488;2022-09-09T03:37:43;3.30;;;1.75;;
22632;SDS011;11483;55.828;37.488;2022-09-09T03:40:09;4.93;;;2.10;;
22632;SDS011;11483;55.828;37.488;2022-09-09T03:42:36;2.58;;;1.73;;
22632;SDS011;11483;55.828;37.488;2022-09-09T03:45:03;5.90;;;1.65;;
22632;SDS011;11483;55.828;37.488;2022-09-09T03:47:30;2.78;;;1.83;;
22632;SDS011;11483;55.828;37.488;2022-09-09T03:49:56;5.03;;;1.60;;
22632;SDS011;11483;55.828;37.488;2022-09-09T03:52:22;3.97;;;1.88;;
22632;SDS011;11483;55.828;37.488;2022-09-09T03:54:51;4.57;;;1.90;;
22632;SDS011;11483;55.828;37.488;2022-09-09T03:57:19;3.10;;;1.52;;
22632;SDS011;11483;55.828;37.488;2022-09-09T03:59:45;7.45;;;1.67;;
22632;SDS011;11483;55.828;37.488;2022-09-09T04:02:11;3.90;;;2.03;;
22632;SDS011;11483;55.828;37.488;2022-09-09T04:04:37;3.38;;;1.50;;
22632;SDS011;11483;55.828;37.488;2022-09-09T04:07:03;3.05;;;1.70;;
22632;SDS011;11483;55.828;37.488;2022-09-09T04:09:32;4.85;;;2.10;;
22632;SDS011;11483;55.828;37.488;2022-09-09T04:11:58;3.25;;;1.80;;
22632;SDS011;11483;55.828;37.488;2022-09-09T04:14:24;3.88;;;1.73;;
22632;SDS011;11483;55.828;37.488;2022-09-09T04:16:55;3.38;;;2.05;;
22632;SDS011;11483;55.828;37.488;2022-09-09T04:19:22;11.48;;;1.95;;
22632;SDS011;11483;55.828;37.488;2022-09-09T04:21:48;6.55;;;1.95;;
22632;SDS011;11483;55.828;37.488;2022-09-09T04:24:15;7.18;;;1.80;;
22632;SDS011;11483;55.828;37.488;2022-09-09T04:26:41;6.20;;;2.08;;
22632;SDS011;11483;55.828;37.488;2022-09-09T04:29:07;2.35;;;1.77;;
22632;SDS011;11483;55.828;37.488;2022-09-09T04:31:33;4.25;;;1.98;;
22632;SDS011;11483;55.828;37.488;2022-09-09T04:33:59;3.85;;;2.22;;
22632;SDS011;11483;55.828;37.488;2022-09-09T04:36:30;11.15;;;2.72;;
22632;SDS011;11483;55.828;37.488;2022-09-09T04:38:57;6.47;;;2.22;;
22632;SDS011;11483;55.828;37.488;2022-09-09T04:41:23;4.00;;;2.35;;
22632;SDS011;11483;55.828;37.488;2022-09-09T04:43:49;5.60;;;1.92;;
22632;SDS011;11483;55.828;37.488;2022-09-09T04:46:15;4.43;;;2.10;;
22632;SDS011;11483;55.828;37.488;2022-09-09T04:48:42;8.02;;;2.22;;
22632;SDS011;11483;55.828;37.488;2022-09-09T04:51:10;8.40;;;2.00;;
22632;SDS011;11483;55.828;37.488;2022-09-09T04:53:38;7.53;;;2.60;;
22632;SDS011;11483;55.828;37.488;2022-09-09T04:58:32;3.35;;;2.20;;
22632;SDS011;11483;55.828;37.488;2022-09-09T05:01:08;4.32;;;2.03;;
22632;SDS011;11483;55.828;37.488;2022-09-09T05:03:50;6.97;;;2.22;;
22632;SDS011;11483;55.828;37.488;2022-09-09T05:06:19;4.25;;;2.25;;
22632;SDS011;11483;55.828;37.488;2022-09-09T05:08:46;4.50;;;2.10;;
22632;SDS011;11483;55.828;37.488;2022-09-09T05:11:21;4.60;;;2.17;;
22632;SDS011;11483;55.828;37.488;2022-09-09T05:13:49;3.50;;;2.17;;
22632;SDS011;11483;55.828;37.488;2022-09-09T05:16:16;4.80;;;2.40;;
22632;SDS011;11483;55.828;37.488;2022-09-09T05:18:43;4.15;;;2.25;;
22632;SDS011;11483;55.828;37.488;2022-09-09T05:21:10;2.28;;;1.70;;
22632;SDS011;11483;55.828;37.488;2022-09-09T05:23:36;5.05;;;2.33;;
22632;SDS011;11483;55.828;37.488;2022-09-09T05:26:03;3.92;;;2.22;;
22632;SDS011;11483;55.828;37.488;2022-09-09T05:28:29;8.70;;;2.70;;
22632;SDS011;11483;55.828;37.488;2022-09-09T05:30:59;6.18;;;2.22;;
22632;SDS011;11483;55.828;37.488;2022-09-09T05:33:26;2.58;;;2.00;;
22632;SDS011;11483;55.828;37.488;2022-09-09T05:35:59;3.13;;;2.15;;
22632;SDS011;11483;55.828;37.488;2022-09-09T05:38:29;3.72;;;2.00;;
22632;SDS011;11483;55.828;37.488;2022-09-09T05:40:57;5.53;;;2.47;;
22632;SDS011;11483;55.828;37.488;2022-09-09T05:43:23;8.13;;;2.30;;
22632;SDS011;11483;55.828;37.488;2022-09-09T05:46:09;8.43;;;2.38;;
22632;SDS011;11483;55.828;37.488;2022-09-09T05:48:37;8.75;;;2.33;;
22632;SDS011;11483;55.828;37.488;2022-09-09T05:51:21;5.82;;;2.60;;
22632;SDS011;11483;55.828;37.488;2022-09-09T05:53:49;6.13;;;2.25;;
22632;SDS011;11483;55.828;37.488;2022-09-09T05:56:17;7.18;;;2.40;;
22632;SDS011;11483;55.828;37.488;2022-09-09T05:58:45;5.43;;;1.90;;
22632;SDS011;11483;55.828;37.488;2022-09-09T06:01:18;5.88;;;2.50;;
22632;SDS011;11483;55.828;37.488;2022-09-09T06:03:46;6.65;;;1.88;;
22632;SDS011;11483;55.828;37.488;2022-09-09T06:06:14;5.22;;;1.90;;
22632;SDS011;11483;55.828;37.488;2022-09-09T06:08:48;8.77;;;2.10;;
22632;SDS011;11483;55.828;37.488;2022-09-09T06:11:17;2.53;;;1.60;;
22632;SDS011;11483;55.828;37.488;2022-09-09T06:13:47;6.10;;;1.58;;
22632;SDS011;11483;55.828;37.488;2022-09-09T06:16:17;7.82;;;1.90;;
22632;SDS011;11483;55.828;37.488;2022-09-09T06:18:44;5.53;;;1.98;;
22632;SDS011;11483;55.828;37.488;2022-09-09T06:21:17;4.53;;;2.17;;
22632;SDS011;11483;55.828;37.488;2022-09-09T06:23:45;11.32;;;2.20;;
22632;SDS011;11483;55.828;37.488;2022-09-09T06:26:13;4.80;;;2.17;;
22632;SDS011;11483;55.828;37.488;2022-09-09T06:28:50;4.32;;;1.38;;
22632;SDS011;11483;55.828;37.488;2022-09-09T06:31:18;5.70;;;1.60;;
22632;SDS011;11483;55.828;37.488;2022-09-09T06:33:47;5.60;;;1.90;;
22632;SDS011;11483;55.828;37.488;2022-09-09T06:36:27;4.78;;;1.58;;
22632;SDS011;11483;55.828;37.488;2022-09-09T06:38:54;3.72;;;1.25;;
22632;SDS011;11483;55.828;37.488;2022-09-09T06:41:23;4.53;;;1.30;;
22632;SDS011;11483;55.828;37.488;2022-09-09T06:43:51;3.80;;;1.40;;
22632;SDS011;11483;55.828;37.488;2022-09-09T06:46:19;8.68;;;1.80;;
22632;SDS011;11483;55.828;37.488;2022-09-09T06:48:52;3.00;;;1.45;;
22632;SDS011;11483;55.828;37.488;2022-09-09T06:51:21;1.30;;;1.13;;
22632;SDS011;11483;55.828;37.488;2022-09-09T06:53:52;6.03;;;1.38;;
22632;SDS011;11483;55.828;37.488;2022-09-09T06:56:20;2.55;;;1.40;;
22632;SDS011;11483;55.828;37.488;2022-09-09T06:59:00;2.47;;;1.35;;
22632;SDS011;11483;55.828;37.488;2022-09-09T07:01:30;3.35;;;1.27;;
22632;SDS011;11483;55.828;37.488;2022-09-09T07:04:00;2.85;;;1.20;;
22632;SDS011;11483;55.828;37.488;2022-09-09T07:06:45;3.50;;;1.20;;
22632;SDS011;11483;55.828;37.488;2022-09-09T07:09:12;2.50;;;1.20;;
22632;SDS011;11483;55.828;37.488;2022-09-09T07:11:41;4.03;;;1.30;;
22632;SDS011;11483;55.828;37.488;2022-09-09T07:14:09;4.85;;;1.40;;
22632;SDS011;11483;55.828;37.488;2022-09-09T07:16:39;1.70;;;1.00;;
22632;SDS011;11483;55.828;37.488;2022-09-09T07:19:06;6.50;;;1.27;;
22632;SDS011;11483;55.828;37.488;2022-09-09T07:21:33;1.77;;;1.10;;
22632;SDS011;11483;55.828;37.488;2022-09-09T07:23:59;2.28;;;1.00;;
22632;SDS011;11483;55.828;37.488;2022-09-09T07:26:27;3.08;;;1.30;;
22632;SDS011;11483;55.828;37.488;2022-09-09T07:28:54;1.25;;;0.90;;
22632;SDS011;11483;55.828;37.488;2022-09-09T07:31:32;2.17;;;0.93;;
22632;SDS011;11483;55.828;37.488;2022-09-09T07:33:59;3.00;;;1.05;;
22632;SDS011;11483;55.828;37.488;2022-09-09T07:36:59;4.05;;;1.25;;
22632;SDS011;11483;55.828;37.488;2022-09-09T07:39:25;1.77;;;0.98;;
22632;SDS011;11483;55.828;37.488;2022-09-09T07:41:51;2.35;;;0.82;;
22632;SDS011;11483;55.828;37.488;2022-09-09T07:44:18;1.73;;;0.80;;
22632;SDS011;11483;55.828;37.488;2022-09-09T07:46:46;0.80;;;0.70;;
22632;SDS011;11483;55.828;37.488;2022-09-09T07:49:12;1.30;;;0.70;;
22632;SDS011;11483;55.828;37.488;2022-09-09T07:59:00;1.83;;;0.90;;
22632;SDS011;11483;55.828;37.488;2022-09-09T08:06:26;3.85;;;0.80;;
22632;SDS011;11483;55.828;37.488;2022-09-09T08:08:54;2.35;;;0.70;;
22632;SDS011;11483;55.828;37.488;2022-09-09T08:11:21;0.57;;;0.57;;
22632;SDS011;11483;55.828;37.488;2022-09-09T08:13:49;1.02;;;0.57;;
22632;SDS011;11483;55.828;37.488;2022-09-09T08:16:17;1.27;;;0.80;;
22632;SDS011;11483;55.828;37.488;2022-09-09T08:18:49;0.70;;;0.60;;
22632;SDS011;11483;55.828;37.488;2022-09-09T08:21:23;1.15;;;0.60;;
22632;SDS011;11483;55.828;37.488;2022-09-09T08:23:53;0.80;;;0.60;;
22632;SDS011;11483;55.828;37.488;2022-09-09T08:26:22;1.40;;;0.80;;
22632;SDS011;11483;55.828;37.488;2022-09-09T08:28:54;1.27;;;0.70;;
22632;SDS011;11483;55.828;37.488;2022-09-09T08:31:26;2.17;;;0.60;;
22632;SDS011;11483;55.828;37.488;2022-09-09T08:33:53;1.70;;;0.60;;
22632;SDS011;11483;55.828;37.488;2022-09-09T08:36:21;2.00;;;0.70;;
22632;SDS011;11483;55.828;37.488;2022-09-09T08:38:50;0.82;;;0.57;;
22632;SDS011;11483;55.828;37.488;2022-09-09T08:51:31;1.13;;;0.73;;
22632;SDS011;11483;55.828;37.488;2022-09-09T08:53:59;1.73;;;0.90;;
22632;SDS011;11483;55.828;37.488;2022-09-09T08:56:27;1.07;;;0.70;;
22632;SDS011;11483;55.828;37.488;2022-09-09T08:58:56;1.63;;;0.80;;
22632;SDS011;11483;55.828;37.488;2022-09-09T09:04:27;3.60;;;0.90;;
22632;SDS011;11483;55.828;37.488;2022-09-09T09:06:58;5.32;;;0.73;;
22632;SDS011;11483;55.828;37.488;2022-09-09T09:09:49;0.85;;;0.80;;
22632;SDS011;11483;55.828;37.488;2022-09-09T09:12:27;0.85;;;0.80;;
22632;SDS011;11483;55.828;37.488;2022-09-09T09:14:57;1.73;;;1.02;;
22632;SDS011;11483;55.828;37.488;2022-09-09T09:17:25;1.60;;;0.82;;
22632;SDS011;11483;55.828;37.488;2022-09-09T09:20:02;4.28;;;0.90;;
22632;SDS011;11483;55.828;37.488;2022-09-09T09:28:16;1.08;;;0.82;;
22632;SDS011;11483;55.828;37.488;2022-09-09T09:30:49;1.30;;;0.90;;
22632;SDS011;11483;55.828;37.488;2022-09-09T09:33:34;2.03;;;1.00;;
22632;SDS011;11483;55.828;37.488;2022-09-09T09:46:24;2.30;;;0.90;;
22632;SDS011;11483;55.828;37.488;2022-09-09T09:49:02;1.40;;;1.10;;
22632;SDS011;11483;55.828;37.488;2022-09-09T09:51:30;1.67;;;0.93;;
22632;SDS011;11483;55.828;37.488;2022-09-09T09:56:38;2.05;;;0.98;;
22632;SDS011;11483;55.828;37.488;2022-09-09T09:59:05;4.10;;;0.95;;
22632;SDS011;11483;55.828;37.488;2022-09-09T10:01:44;1.50;;;0.80;;
22632;SDS011;11483;55.828;37.488;2022-09-09T10:04:20;1.65;;;0.90;;
22632;SDS011;11483;55.828;37.488;2022-09-09T10:06:50;2.17;;;1.17;;
22632;SDS011;11483;55.828;37.488;2022-09-09T10:12:02;1.50;;;0.90;;
22632;SDS011;11483;55.828;37.488;2022-09-09T10:14:52;1.85;;;0.93;;
22632;SDS011;11483;55.828;37.488;2022-09-09T10:18:03;1.33;;;0.90;;
22632;SDS011;11483;55.828;37.488;2022-09-09T10:20:50;1.40;;;0.98;;
22632;SDS011;11483;55.828;37.488;2022-09-09T10:29:01;2.60;;;1.10;;
22632;SDS011;11483;55.828;37.488;2022-09-09T10:39:54;2.70;;;0.95;;
22632;SDS011;11483;55.828;37.488;2022-09-09T10:42:42;2.80;;;1.20;;
22632;SDS011;11483;55.828;37.488;2022-09-09T10:53:35;1.52;;;1.00;;
22632;SDS011;11483;55.828;37.488;2022-09-09T10:56:18;0.95;;;0.80;;
22632;SDS011;11483;55.828;37.488;2022-09-09T10:58:51;1.83;;;0.68;;
22632;SDS011;11483;55.828;37.488;2022-09-09T11:01:28;0.88;;;0.75;;
22632;SDS011;11483;55.828;37.488;2022-09-09T11:04:02;3.53;;;1.10;;
22632;SDS011;11483;55.828;37.488;2022-09-09T11:06:37;0.95;;;0.73;;
22632;SDS011;11483;55.828;37.488;2022-09-09T11:09:19;0.90;;;0.60;;
22632;SDS011;11483;55.828;37.488;2022-09-09T11:26:55;3.90;;;0.82;;
22632;SDS011;11483;55.828;37.488;2022-09-09T11:40:09;1.48;;;1.20;;
22632;SDS011;11483;55.828;37.488;2022-09-09T11:43:01;2.63;;;0.95;;
22632;SDS011;11483;55.828;37.488;2022-09-09T11:45:37;4.45;;;1.23;;
22632;SDS011;11483;55.828;37.488;2022-09-09T11:48:26;0.95;;;0.80;;
22632;SDS011;11483;55.828;37.488;2022-09-09T11:51:01;0.77;;;0.77;;
22632;SDS011;11483;55.828;37.488;2022-09-09T11:53:32;1.30;;;0.73;;
22632;SDS011;11483;55.828;37.488;2022-09-09T11:56:05;1.15;;;0.70;;
22632;SDS011;11483;55.828;37.488;2022-09-09T11:58:42;2.83;;;0.80;;
22632;SDS011;11483;55.828;37.488;2022-09-09T12:01:29;2.25;;;0.90;;
22632;SDS011;11483;55.828;37.488;2022-09-09T12:04:46;4.43;;;0.93;;
22632;SDS011;11483;55.828;37.488;2022-09-09T12:09:27;2.05;;;0.98;;
22632;SDS011;11483;55.828;37.488;2022-09-09T12:14:35;2.17;;;0.82;;
22632;SDS011;11483;55.828;37.488;2022-09-09T12:19:43;7.47;;;0.70;;
22632;SDS011;11483;55.828;37.488;2022-09-09T12:32:36;1.40;;;0.80;;
22632;SDS011;11483;55.828;37.488;2022-09-09T12:35:07;1.20;;;0.70;;
22632;SDS011;11483;55.828;37.488;2022-09-09T12:37:38;1.70;;;0.60;;
22632;SDS011;11483;55.828;37.488;2022-09-09T12:40:23;0.80;;;0.80;;
22632;SDS011;11483;55.828;37.488;2022-09-09T12:42:53;0.80;;;0.80;;
22632;SDS011;11483;55.828;37.488;2022-09-09T12:45:21;1.20;;;0.80;;
22632;SDS011;11483;55.828;37.488;2022-09-09T12:48:03;0.80;;;0.70;;
22632;SDS011;11483;55.828;37.488;2022-09-09T12:50:50;0.98;;;0.57;;
22632;SDS011;11483;55.828;37.488;2022-09-09T12:55:54;1.40;;;0.77;;
22632;SDS011;11483;55.828;37.488;2022-09-09T12:58:27;0.50;;;0.50;;
22632;SDS011;11483;55.828;37.488;2022-09-09T13:00:58;1.42;;;0.60;;
22632;SDS011;11483;55.828;37.488;2022-09-09T13:03:25;0.52;;;0.52;;
22632;SDS011;11483;55.828;37.488;2022-09-09T13:05:53;4.20;;;1.00;;
22632;SDS011;11483;55.828;37.488;2022-09-09T13:08:24;1.67;;;1.00;;
22632;SDS011;11483;55.828;37.488;2022-09-09T13:11:01;1.35;;;0.70;;
22632;SDS011;11483;55.828;37.488;2022-09-09T13:13:36;0.77;;;0.70;;
22632;SDS011;11483;55.828;37.488;2022-09-09T13:16:07;0.65;;;0.65;;
22632;SDS011;11483;55.828;37.488;2022-09-09T13:18:49;1.00;;;0.90;;
22632;SDS011;11483;55.828;37.488;2022-09-09T13:21:39;1.20;;;0.80;;
22632;SDS011;11483;55.828;37.488;2022-09-09T13:24:06;1.58;;;1.25;;
22632;SDS011;11483;55.828;37.488;2022-09-09T13:26:54;1.23;;;0.90;;
22632;SDS011;11483;55.828;37.488;2022-09-09T13:29:27;2.72;;;1.10;;
22632;SDS011;11483;55.828;37.488;2022-09-09T13:31:53;3.25;;;1.02;;
22632;SDS011;11483;55.828;37.488;2022-09-09T13:34:29;0.88;;;0.80;;
22632;SDS011;11483;55.828;37.488;2022-09-09T13:37:01;1.50;;;0.80;;
22632;SDS011;11483;55.828;37.488;2022-09-09T13:39:31;2.28;;;1.20;;
22632;SDS011;11483;55.828;37.488;2022-09-09T13:41:59;1.10;;;0.90;;
22632;SDS011;11483;55.828;37.488;2022-09-09T13:44:29;0.70;;;0.70;;
22632;SDS011;11483;55.828;37.488;2022-09-09T13:47:21;3.15;;;0.73;;
22632;SDS011;11483;55.828;37.488;2022-09-09T13:49:48;0.75;;;0.60;;
22632;SDS011;11483;55.828;37.488;2022-09-09T13:52:15;0.70;;;0.70;;
22632;SDS011;11483;55.828;37.488;2022-09-09T14:02:09;0.80;;;0.80;;
22632;SDS011;11483;55.828;37.488;2022-09-09T14:04:35;0.77;;;0.70;;
22632;SDS011;11483;55.828;37.488;2022-09-09T14:07:01;3.60;;;1.02;;
22632;SDS011;11483;55.828;37.488;2022-09-09T14:09:30;0.90;;;0.90;;
22632;SDS011;11483;55.828;37.488;2022-09-09T14:11:56;2.33;;;1.27;;
22632;SDS011;11483;55.828;37.488;2022-09-09T14:14:22;7.75;;;1.80;;
22632;SDS011;11483;55.828;37.488;2022-09-09T14:16:48;2.95;;;0.95;;
22632;SDS011;11483;55.828;37.488;2022-09-09T14:19:14;1.63;;;0.88;;
22632;SDS011;11483;55.828;37.488;2022-09-09T14:21:40;1.95;;;0.95;;
22632;SDS011;11483;55.828;37.488;2022-09-09T14:26:31;2.97;;;0.90;;
22632;SDS011;11483;55.828;37.488;2022-09-09T14:28:57;1.00;;;0.75;;
22632;SDS011;11483;55.828;37.488;2022-09-09T14:31:25;0.85;;;0.80;;
22632;SDS011;11483;55.828;37.488;2022-09-09T14:33:51;3.90;;;1.10;;
22632;SDS011;11483;55.828;37.488;2022-09-09T14:36:19;1.40;;;0.90;;
22632;SDS011;11483;55.828;37.488;2022-09-09T14:38:45;1.00;;;0.80;;
22632;SDS011;11483;55.828;37.488;2022-09-09T14:41:15;2.20;;;1.00;;
22632;SDS011;11483;55.828;37.488;2022-09-09T14:46:08;1.30;;;1.00;;
22632;SDS011;11483;55.828;37.488;2022-09-09T14:48:39;3.17;;;1.10;;
22632;SDS011;11483;55.828;37.488;2022-09-09T14:51:10;2.20;;;0.88;;
22632;SDS011;11483;55.828;37.488;2022-09-09T14:53:38;1.30;;;0.80;;
22632;SDS011;11483;55.828;37.488;2022-09-09T14:56:12;0.90;;;0.80;;
22632;SDS011;11483;55.828;37.488;2022-09-09T14:58:41;1.70;;;0.88;;
22632;SDS011;11483;55.828;37.488;2022-09-09T15:01:09;6.57;;;1.10;;
22632;SDS011;11483;55.828;37.488;2022-09-09T15:03:37;2.80;;;0.90;;
22632;SDS011;11483;55.828;37.488;2022-09-09T15:06:04;4.65;;;1.00;;
22632;SDS011;11483;55.828;37.488;2022-09-09T15:08:31;3.70;;;1.10;;
22632;SDS011;11483;55.828;37.488;2022-09-09T15:11:01;1.60;;;0.85;;
22632;SDS011;11483;55.828;37.488;2022-09-09T15:13:29;2.97;;;0.80;;
22632;SDS011;11483;55.828;37.488;2022-09-09T15:15:55;2.30;;;1.08;;
22632;SDS011;11483;55.828;37.488;2022-09-09T15:18:21;4.68;;;1.10;;
22632;SDS011;11483;55.828;37.488;2022-09-09T15:20:47;4.10;;;1.42;;
22632;SDS011;11483;55.828;37.488;2022-09-09T15:23:13;3.38;;;1.30;;
22632;SDS011;11483;55.828;37.488;2022-09-09T15:25:52;3.92;;;1.42;;
22632;SDS011;11483;55.828;37.488;2022-09-09T15:28:19;3.40;;;1.20;;
22632;SDS011;11483;55.828;37.488;2022-09-09T15:30:48;2.95;;;1.08;;
22632;SDS011;11483;55.828;37.488;2022-09-09T15:33:15;5.07;;;1.30;;
22632;SDS011;11483;55.828;37.488;2022-09-09T15:35:41;5.95;;;1.23;;
22632;SDS011;11483;55.828;37.488;2022-09-09T15:38:07;3.63;;;1.10;;
22632;SDS011;11483;55.828;37.488;2022-09-09T15:40:32;9.32;;;1.95;;
22632;SDS011;11483;55.828;37.488;2022-09-09T15:42:59;2.28;;;1.10;;
22632;SDS011;11483;55.828;37.488;2022-09-09T15:45:25;4.60;;;1.70;;
22632;SDS011;11483;55.828;37.488;2022-09-09T15:47:52;1.80;;;1.17;;
22632;SDS011;11483;55.828;37.488;2022-09-09T15:50:17;3.38;;;1.42;;
22632;SDS011;11483;55.828;37.488;2022-09-09T15:52:43;3.53;;;1.30;;
22632;SDS011;11483;55.828;37.488;2022-09-09T15:55:09;5.25;;;1.48;;
22632;SDS011;11483;55.828;37.488;2022-09-09T15:57:35;3.22;;;1.52;;
22632;SDS011;11483;55.828;37.488;2022-09-09T16:00:02;2.80;;;1.55;;
22632;SDS011;11483;55.828;37.488;2022-09-09T16:02:30;8.13;;;1.80;;
22632;SDS011;11483;55.828;37.488;2022-09-09T16:04:55;4.47;;;1.50;;
22632;SDS011;11483;55.828;37.488;2022-09-09T16:07:22;4.18;;;1.60;;
22632;SDS011;11483;55.828;37.488;2022-09-09T16:09:48;4.53;;;1.50;;
22632;SDS011;11483;55.828;37.488;2022-09-09T16:12:16;3.60;;;1.73;;
22632;SDS011;11483;55.828;37.488;2022-09-09T16:14:42;2.58;;;1.60;;
22632;SDS011;11483;55.828;37.488;2022-09-09T16:17:08;4.45;;;1.75;;
22632;SDS011;11483;55.828;37.488;2022-09-09T16:19:34;4.75;;;2.05;;
22632;SDS011;11483;55.828;37.488;2022-09-09T16:22:00;5.35;;;1.75;;
22632;SDS011;11483;55.828;37.488;2022-09-09T16:24:26;4.30;;;2.00;;
22632;SDS011;11483;55.828;37.488;2022-09-09T16:26:53;8.02;;;2.70;;
22632;SDS011;11483;55.828;37.488;2022-09-09T16:29:19;6.00;;;2.47;;
22632;SDS011;11483;55.828;37.488;2022-09-09T16:31:46;7.22;;;2.03;;
22632;SDS011;11483;55.828;37.488;2022-09-09T16:34:13;7.03;;;1.80;;
22632;SDS011;11483;55.828;37.488;2022-09-09T16:36:41;5.63;;;1.85;;
22632;SDS011;11483;55.828;37.488;2022-09-09T16:39:08;3.60;;;1.52;;
22632;SDS011;11483;55.828;37.488;2022-09-09T16:41:36;5.65;;;1.70;;
22632;SDS011;11483;55.828;37.488;2022-09-09T16:44:04;4.05;;;1.75;;
22632;SDS011;11483;55.828;37.488;2022-09-09T16:49:04;5.82;;;2.25;;
22632;SDS011;11483;55.828;37.488;2022-09-09T16:51:41;5.70;;;2.40;;
22632;SDS011;11483;55.828;37.488;2022-09-09T16:54:12;5.40;;;2.25;;
22632;SDS011;11483;55.828;37.488;2022-09-09T16:56:40;10.93;;;2.08;;
22632;SDS011;11483;55.828;37.488;2022-09-09T16:59:08;7.43;;;2.75;;
22632;SDS011;11483;55.828;37.488;2022-09-09T17:01:38;5.85;;;2.65;;
22632;SDS011;11483;55.828;37.488;2022-09-09T17:04:09;6.43;;;2.20;;
22632;SDS011;11483;55.828;37.488;2022-09-09T17:06:41;11.63;;;2.78;;
22632;SDS011;11483;55.828;37.488;2022-09-09T17:09:08;12.77;;;3.22;;
22632;SDS011;11483;55.828;37.488;2022-09-09T17:11:35;8.10;;;2.85;;
22632;SDS011;11483;55.828;37.488;2022-09-09T17:14:02;11.40;;;3.85;;
22632;SDS011;11483;55.828;37.488;2022-09-09T17:16:29;9.85;;;3.78;;
22632;SDS011;11483;55.828;37.488;2022-09-09T17:18:57;19.00;;;3.78;;
22632;SDS011;11483;55.828;37.488;2022-09-09T17:21:24;9.40;;;4.10;;
22632;SDS011;11483;55.828;37.488;2022-09-09T17:23:51;14.40;;;4.03;;
22632;SDS011;11483;55.828;37.488;2022-09-09T17:26:20;6.47;;;3.22;;
22632;SDS011;11483;55.828;37.488;2022-09-09T17:28:47;12.73;;;4.25;;
22632;SDS011;11483;55.828;37.488;2022-09-09T17:31:17;6.40;;;3.42;;
22632;SDS011;11483;55.828;37.488;2022-09-09T17:33:44;9.55;;;3.72;;
22632;SDS011;11483;55.828;37.488;2022-09-09T17:36:17;11.10;;;3.97;;
22632;SDS011;11483;55.828;37.488;2022-09-09T17:39:09;8.50;;;3.28;;
22632;SDS011;11483;55.828;37.488;2022-09-09T17:41:36;9.27;;;3.03;;
22632;SDS011;11483;55.828;37.488;2022-09-09T17:44:03;11.07;;;3.33;;
22632;SDS011;11483;55.828;37.488;2022-09-09T17:46:31;8.90;;;3.45;;
22632;SDS011;11483;55.828;37.488;2022-09-09T17:49:06;8.10;;;2.83;;
22632;SDS011;11483;55.828;37.488;2022-09-09T17:51:34;7.85;;;3.88;;
22632;SDS011;11483;55.828;37.488;2022-09-09T17:54:05;9.07;;;3.58;;
22632;SDS011;11483;55.828;37.488;2022-09-09T17:56:34;8.63;;;3.67;;